Latest Weather Observations for Parafield

IDS60901

Issued at 9:01 pm CDT Wednesday 1 April 2015 (issued every 10 minutes, with the page automatically refreshed every 10 minutes)

About weather observations | Map of Adelaide area stations | Latest observations for Adelaide area | Other Formats
Station Details ID: 023013 Name: PARAFIELD AIRPORT Lat: -34.80 Lon: 138.63 Height: 9.5 m
Data from the previous 72 hours. | See also: Recent months at Parafield
Date/Time
CDT
Tmp

°C
App
Tmp
°C
Dew
Point
°C
Rel
Hum
%
Delta-T

°C
Wind Press
QNH
hPa
Press
MSL
hPa
Rain
since
9 am
mm
Dir
 
Spd
km/h
Gust
km/h
Spd
kts
Gust
kts
01/09:00pm 19.0 18.5 17.0 88 1.2 S 15 20 8 11 1018.2 1018.2 0.0
01/08:30pm 19.2 19.0 16.6 85 1.6 SSW 13 17 7 9 1017.6 1017.6 0.0
01/08:00pm 19.2 19.0 16.6 85 1.6 SSW 13 17 7 9 1017.3 1017.3 0.0
01/07:53pm 19.2 19.0 16.6 85 1.6 SSW 13 17 7 9 1017.2 1017.2 0.0
01/07:30pm 19.3 18.1 16.2 82 1.9 SSW 17 22 9 12 1016.7 1016.7 0.0
01/07:00pm 20.7 18.6 15.3 71 3.2 SSW 20 26 11 14 1016.3 1016.3 0.0
01/06:30pm 21.2 19.1 15.1 68 3.6 SSW 20 26 11 14 1016.3 1016.3 0.0
01/06:00pm 21.9 19.8 14.8 64 4.2 SSW 19 28 10 15 1015.7 1015.7 0.0
01/05:30pm 21.6 20.1 15.4 68 3.7 SSW 17 24 9 13 1015.3 1015.3 0.0
01/05:00pm 21.3 19.5 16.0 72 3.2 SSW 20 30 11 16 1015.0 1015.0 0.0
01/04:30pm 23.2 19.8 14.7 58 5.0 SW 26 37 14 20 1015.1 1015.1 0.0
01/04:00pm 26.1 22.2 13.2 44 7.5 SSW 26 32 14 17 1014.3 1014.3 0.0
01/03:30pm 27.6 23.5 11.6 37 9.2 W 24 33 13 18 1014.0 1014.0 0.0
01/03:00pm 27.7 23.8 9.5 32 10.1 WNW 20 26 11 14 1013.9 1013.9 0.0
01/02:30pm 28.6 23.9 7.8 27 11.3 NW 22 32 12 17 1013.9 1013.9 0.0
01/02:00pm 28.7 22.5 6.1 24 11.9 NW 28 37 15 20 1014.4 1014.4 0.0
01/01:30pm 28.8 22.1 5.6 23 12.1 NW 30 44 16 24 1014.6 1014.6 0.0
01/01:00pm 29.6 22.4 2.8 18 13.4 NNW 30 44 16 24 1014.7 1014.7 0.0
01/12:30pm 30.9 24.1 3.0 17 14.1 NNW 28 39 15 21 1014.9 1014.9 0.0
01/12:00pm 30.4 24.7 2.6 17 13.9 NNW 22 33 12 18 1015.0 1015.0 0.0
01/11:30am 29.7 22.7 2.1 17 13.6 N 28 37 15 20 1015.2 1015.2 0.0
01/11:00am 30.3 23.0 2.5 17 13.9 N 30 39 16 21 1015.3 1015.3 0.0
01/10:30am 28.8 22.6 2.1 18 13.1 N 24 32 13 17 1015.7 1015.7 0.0
01/10:00am 27.0 21.5 2.1 20 12.1 NNE 20 26 11 14 1015.8 1015.8 0.0
01/09:30am 25.3 19.8 2.1 22 11.1 NNE 20 28 11 15 1015.8 1015.8 0.0
01/09:00am 24.5 19.0 2.0 23 10.7 NNE 20 28 11 15 1015.9 1015.9 0.0
01/08:30am 23.6 18.3 1.9 24 10.2 NNE 19 22 10 12 1015.7 1015.7 0.0
01/08:00am 23.1 17.8 2.0 25 9.9 NNE 19 20 10 11 1015.9 1015.9 0.0
01/07:30am 23.0 17.6 2.5 26 9.7 NNE 20 26 11 14 1015.9 1015.9 0.0
01/07:00am 23.2 18.0 2.7 26 9.8 N 19 24 10 13 1016.0 1016.0 0.0
01/06:30am 23.3 18.5 2.7 26 9.8 N 17 22 9 12 1015.6 1015.6 0.0
01/06:00am 23.6 18.9 3.0 26 9.9 NNE 17 20 9 11 1015.5 1015.5 0.0
01/05:30am 23.9 18.7 2.7 25 10.2 NNE 19 24 10 13 1015.5 1015.5 0.0
01/05:00am 24.6 19.4 2.7 24 10.6 NNE 19 28 10 15 1015.6 1015.6 0.0
01/04:30am 24.7 19.6 2.8 24 10.6 NNE 19 24 10 13 1015.7 1015.7 0.0
01/04:00am 24.0 19.5 4.4 28 9.7 NNE 17 20 9 11 1016.0 1016.0 0.0
01/03:47am 22.4 19.1 6.6 36 8.1 NE 13 22 7 12 1016.2 1016.2 0.0
01/03:30am 15.7 15.1 7.2 57 4.2 CALM 0 7 0 4 1016.4 1016.4 0.0
01/03:00am 16.0 15.3 7.0 55 4.4 CALM 0 0 0 0 1016.9 1016.9 0.0
01/02:30am 14.7 14.0 6.8 59 3.8 CALM 0 0 0 0 1017.5 1017.5 0.0
01/02:00am 17.4 16.8 7.5 52 5.0 CALM 0 0 0 0 1017.9 1017.9 0.0
01/01:30am 17.8 17.2 7.5 51 5.2 CALM 0 0 0 0 1018.3 1018.3 0.0
01/01:00am 16.5 15.9 7.4 55 4.5 CALM 0 0 0 0 1018.6 1018.6 0.0
01/12:30am 15.8 15.1 7.0 56 4.3 CALM 0 0 0 0 1018.5 1018.5 0.0
01/12:00am 16.5 15.9 7.2 54 4.6 CALM 0 6 0 3 1018.7 1018.7 0.0
 
Date/Time
CDT
Tmp

°C
App
Tmp
°C
Dew
Point
°C
Rel
Hum
%
Delta-T

°C
Wind Press
QNH
hPa
Press
MSL
hPa
Rain
since
9 am
mm
Dir
 
Spd
km/h
Gust
km/h
Spd
kts
Gust
kts
31/11:30pm 18.0 17.4 7.4 50 5.3 CALM 0 0 0 0 1019.0 1019.0 0.0
31/11:00pm 18.8 16.8 6.9 46 6.0 E 7 7 4 4 1019.2 1019.2 0.0
31/10:30pm 19.6 17.7 7.4 45 6.2 NNW 7 9 4 5 1019.2 1019.2 0.0
31/10:00pm 19.5 17.9 7.9 47 6.0 N 6 7 3 4 1019.0 1019.0 0.0
31/09:30pm 20.2 18.6 8.2 46 6.2 NE 6 6 3 3 1019.0 1019.0 0.0
31/09:00pm 19.9 17.9 7.0 43 6.5 SSE 7 9 4 5 1019.0 1019.0 0.0
31/08:30pm 22.9 20.7 7.8 38 7.9 ESE 9 11 5 6 1019.0 1019.0 0.0
31/08:00pm 23.2 20.9 7.3 36 8.3 ESE 9 9 5 5 1019.0 1019.0 0.0
31/07:30pm 24.1 21.8 7.3 34 8.8 SE 9 9 5 5 1019.1 1019.1 0.0
31/07:00pm 24.7 22.5 7.8 34 8.9 S 9 11 5 6 1019.2 1019.2 0.0
31/06:30pm 26.0 23.7 7.6 31 9.8 SSW 9 11 5 6 1019.2 1019.2 0.0
31/06:00pm 27.6 24.6 7.5 28 10.7 SW 13 17 7 9 1019.1 1019.1 0.0
31/05:30pm 27.4 23.8 8.3 30 10.3 SSW 17 20 9 11 1018.9 1018.9 0.0
31/05:00pm 28.2 24.5 8.0 28 10.9 SSW 17 20 9 11 1018.9 1018.9 0.0
31/04:30pm 29.3 25.5 8.9 28 11.3 SW 19 24 10 13 1019.0 1019.0 0.0
31/04:00pm 28.9 24.0 8.6 28 11.2 W 24 30 13 16 1019.3 1019.3 0.0
31/03:30pm 30.2 26.1 8.0 25 12.1 WSW 19 24 10 13 1019.3 1019.3 0.0
31/03:00pm 30.9 27.1 3.8 18 13.9 NNE 13 24 7 13 1019.7 1019.7 0.0
31/02:30pm 30.6 26.9 4.4 19 13.5 NNE 13 26 7 14 1020.2 1020.2 0.0
31/02:00pm 30.8 27.6 5.3 20 13.4 NNE 11 22 6 12 1020.8 1020.8 0.0
31/01:30pm 30.1 25.8 5.4 21 12.9 NNW 17 24 9 13 1021.4 1021.4 0.0
31/01:00pm 29.3 25.5 6.0 23 12.3 N 15 24 8 13 1022.2 1022.1 0.0
31/12:30pm 28.1 24.1 6.8 26 11.3 N 17 26 9 14 1022.7 1022.6 0.0
31/12:00pm 27.7 23.4 7.0 27 11.0 N 19 26 10 14 1023.1 1023.0 0.0
31/11:30am 27.5 23.0 6.8 27 10.9 NNE 20 30 11 16 1023.3 1023.2 0.0
31/11:00am 26.6 21.6 6.6 28 10.5 NNE 22 32 12 17 1023.5 1023.4 0.0
31/10:30am 26.4 22.3 7.9 31 9.9 NE 19 26 10 14 1023.7 1023.6 0.0
31/10:00am 24.9 21.3 8.4 35 8.8 NE 17 20 9 11 1024.0 1023.9 0.0
31/09:30am 23.5 21.6 9.1 40 7.7 N 9 13 5 7 1024.2 1024.1 0.0
31/09:00am 19.3 19.5 10.6 57 4.7 CALM 0 0 0 0 1024.2 1024.1 0.0
31/08:30am 16.6 17.0 11.3 71 2.8 CALM 0 0 0 0 1024.0 1023.9 0.0
31/08:00am 13.6 13.5 9.6 77 2.0 CALM 0 0 0 0 1024.0 1023.9 0.0
31/07:30am 13.5 12.7 9.7 78 1.9 W 4 7 2 4 1023.9 1023.8 0.0
31/07:00am 15.2 13.9 9.8 70 2.8 NW 7 11 4 6 1023.7 1023.6 0.0
31/06:30am 13.1 10.9 9.4 78 1.9 W 11 13 6 7 1023.8 1023.7 0.0
31/06:00am 15.0 13.8 9.6 70 2.8 NNE 6 9 3 5 1023.2 1023.1 0.0
31/05:30am 14.4 13.5 9.4 72 2.6 WNW 4 7 2 4 1023.3 1023.2 0.0
31/05:00am 14.2 12.7 9.0 71 2.6 SW 7 9 4 5 1023.3 1023.2 0.0
31/04:30am 14.7 12.8 9.1 69 2.8 W 9 11 5 6 1023.3 1023.2 0.0
31/04:00am 15.2 13.6 8.9 66 3.2 W 7 9 4 5 1023.4 1023.3 0.0
31/03:30am 17.4 16.4 8.8 57 4.4 N 4 9 2 5 1023.4 1023.3 0.0
31/03:00am 17.2 15.7 8.4 56 4.5 SW 6 7 3 4 1023.6 1023.5 0.0
31/02:30am 18.8 16.6 9.3 54 5.0 E 11 17 6 9 1023.5 1023.4 0.0
31/02:00am 19.0 17.2 9.5 54 5.0 E 9 15 5 8 1023.7 1023.6 0.0
31/01:30am 19.0 16.1 9.5 54 5.0 E 15 22 8 12 1023.8 1023.7 0.0
31/01:00am 19.2 15.3 9.4 53 5.2 ESE 20 26 11 14 1023.8 1023.7 0.0
31/12:30am 19.3 15.0 9.5 53 5.2 ESE 22 28 12 15 1023.9 1023.8 0.0
31/12:00am 19.4 14.6 9.0 51 5.4 ESE 24 32 13 17 1024.0 1023.9 0.0
 
Date/Time
CDT
Tmp

°C
App
Tmp
°C
Dew
Point
°C
Rel
Hum
%
Delta-T

°C
Wind Press
QNH
hPa
Press
MSL
hPa
Rain
since
9 am
mm
Dir
 
Spd
km/h
Gust
km/h
Spd
kts
Gust
kts
30/11:30pm 18.6 18.0 9.1 54 4.9 ENE 2 6 1 3 1024.5 1024.4 0.0
30/11:00pm 19.8 18.2 8.8 49 5.8 ESE 7 9 4 5 1024.7 1024.6 0.0
30/10:30pm 19.6 18.6 8.9 50 5.6 SE 4 7 2 4 1024.6 1024.5 0.0
30/10:00pm 19.9 18.7 9.5 51 5.5 ESE 6 11 3 6 1024.8 1024.7 0.0
30/09:30pm 20.3 18.8 10.4 53 5.3 SE 9 13 5 7 1024.7 1024.6 0.0
30/09:00pm 19.9 19.7 10.6 55 5.0 SE 2 6 1 3 1024.7 1024.6 0.0
30/08:30pm 19.4 18.2 10.4 56 4.8 ESE 7 11 4 6 1024.4 1024.3 0.0
30/08:00pm 19.9 18.8 10.0 53 5.3 SW 6 6 3 3 1023.9 1023.8 0.0
30/07:30pm 20.3 18.3 10.1 52 5.5 SSW 11 15 6 8 1023.8 1023.7 0.0
30/07:00pm 22.0 19.6 9.9 46 6.6 SSW 13 17 7 9 1023.6 1023.5 0.0
30/06:30pm 23.7 21.1 9.3 40 7.8 SW 13 17 7 9 1023.4 1023.3 0.0
30/06:00pm 23.9 20.9 10.6 43 7.3 SSW 17 20 9 11 1023.3 1023.2 0.0
30/05:30pm 24.6 21.4 11.2 43 7.5 SW 19 24 10 13 1023.2 1023.1 0.0
30/05:00pm 25.0 21.7 10.8 41 7.9 SW 19 24 10 13 1023.1 1023.0 0.0
30/04:30pm 25.8 23.2 11.9 42 7.9 SW 17 22 9 12 1023.0 1022.9 0.0
30/04:00pm 25.7 23.2 12.2 43 7.8 WSW 17 24 9 13 1023.2 1023.1 0.0
30/03:30pm 25.5 22.2 11.7 42 7.8 WSW 20 28 11 15 1023.2 1023.1 0.0
30/03:00pm 25.8 22.8 11.9 42 7.9 WSW 19 28 10 15 1023.4 1023.3 0.0
30/02:30pm 26.1 23.7 11.4 39 8.3 SW 15 24 8 13 1023.6 1023.5 0.0
30/02:00pm 25.6 22.6 10.6 39 8.4 WSW 17 24 9 13 1023.9 1023.8 0.0
30/01:30pm 25.9 24.3 10.1 37 8.7 SSW 9 17 5 9 1024.1 1024.0 0.0
30/01:00pm 24.4 23.3 10.7 42 7.6 WSW 7 17 4 9 1024.5 1024.4 0.0
30/12:30pm 25.0 24.2 11.2 42 7.7 WNW 6 17 3 9 1024.9 1024.8 0.0
30/12:00pm 24.0 22.9 10.7 43 7.4 WSW 7 11 4 6 1025.1 1025.0 0.0
30/11:30am 23.2 21.7 10.6 45 6.9 WNW 9 15 5 8 1025.4 1025.3 0.0
30/11:00am 23.1 22.3 11.2 47 6.6 NNW 6 11 3 6 1025.7 1025.6 0.0
30/10:30am 22.1 21.1 10.9 49 6.1 NNW 7 11 4 6 1025.8 1025.7 0.0
30/10:00am 21.1 19.5 10.3 50 5.9 NNE 9 13 5 7 1025.7 1025.6 0.0
30/09:30am 20.1 18.9 10.2 53 5.3 NNE 7 11 4 6 1025.7 1025.6 0.0
30/09:00am 18.1 17.0 10.0 59 4.3 NNE 6 7 3 4 1025.3 1025.2 0.0
30/08:30am 15.5 14.0 9.2 66 3.2 NE 7 9 4 5 1025.0 1024.9 0.0
30/08:00am 12.1 10.3 8.0 76 2.0 ENE 7 9 4 5 1024.9 1024.8 0.0
30/07:30am 11.4 11.0 8.1 80 1.6 CALM 0 0 0 0 1024.5 1024.4 0.0
30/07:00am 10.9 10.4 7.8 81 1.5 CALM 0 0 0 0 1024.2 1024.1 0.0
30/06:30am 10.5 9.9 7.4 81 1.5 CALM 0 0 0 0 1023.8 1023.7 0.0
30/06:00am 11.1 10.8 8.5 84 1.3 CALM 0 0 0 0 1023.4 1023.3 0.0
30/05:30am 11.7 11.4 8.6 81 1.5 CALM 0 0 0 0 1023.1 1023.0 0.0
30/05:00am 11.4 10.9 7.9 79 1.7 CALM 0 0 0 0 1023.0 1022.9 0.0
30/04:30am 11.8 11.5 8.6 81 1.6 CALM 0 0 0 0 1023.0 1022.9 0.0
30/04:00am 12.9 12.5 8.4 74 2.2 CALM 0 4 0 2 1023.0 1022.9 0.0
30/03:30am 13.5 11.9 8.8 73 2.4 NE 7 9 4 5 1023.1 1023.0 0.0
30/03:00am 12.8 12.5 8.5 75 2.1 CALM 0 0 0 0 1023.3 1023.2 0.0
30/02:30am 13.2 12.9 8.7 74 2.2 CALM 0 0 0 0 1023.6 1023.5 0.0
30/02:00am 13.8 13.7 9.5 75 2.2 CALM 0 0 0 0 1023.8 1023.7 0.0
30/01:30am 13.2 12.8 8.1 71 2.5 CALM 0 0 0 0 1023.8 1023.7 0.0
30/01:00am 14.7 14.7 9.7 72 2.6 CALM 0 0 0 0 1023.9 1023.8 0.0
30/12:30am 14.5 13.4 9.9 74 2.4 WSW 6 7 3 4 1023.9 1023.8 0.0
30/12:00am 15.3 15.6 10.9 75 2.3 CALM 0 6 0 3 1023.8 1023.7 0.0
 
Date/Time
CDT
Tmp

°C
App
Tmp
°C
Dew
Point
°C
Rel
Hum
%
Delta-T

°C
Wind Press
QNH
hPa
Press
MSL
hPa
Rain
since
9 am
mm
Dir
 
Spd
km/h
Gust
km/h
Spd
kts
Gust
kts
29/11:30pm 16.2 15.0 9.4 64 3.5 SE 6 7 3 4 1023.8 1023.7 0.0
29/11:00pm 16.9 16.1 9.8 63 3.7 SE 4 6 2 3 1024.0 1023.9 0.0
29/10:30pm 16.5 15.3 9.4 63 3.7 SW 6 9 3 5 1023.9 1023.8 0.0
29/10:00pm 17.3 15.9 9.5 60 4.1 WSW 7 9 4 5 1023.7 1023.6 0.0
29/09:30pm 18.2 17.1 9.8 58 4.4 SW 6 7 3 4 1023.3 1023.2 0.0

Latest Capital City Observations: Canberra | Sydney | Melbourne | Brisbane | Adelaide | Perth | Hobart | Darwin

Other Formats:

Comma delimited format used in spreadsheet applications
http://www.bom.gov.au/fwo/IDS60901/IDS60901.95677.axf

JavaScript Object Notation format (JSON) in row-major order
http://www.bom.gov.au/fwo/IDS60901/IDS60901.95677.json